Kljuchi, Russia
Current Conditions -  °F | °C
As of 8:00 PM on Friday 19 Dec 2014 (Local Time) from UHPP Reporting Station
Clear Clear  
Wind Chill: -5°   Ceiling: Unl
Heat Index:   Visibility: 6mi
Dew Point: -8°   Wind: 7mph
Humidity: 52%   Direction: 360°N
Pressure: 29.62"   Gusts: NA
Location:  56.32°N, 160.83°E
Report Text: UHPP 190800Z 36003MPS 9999 NSC M14/M22 Q1003 NOSIG RMKQFE749/0998 SC070
Loading
Personal Weather Stations






























Interactive Weather Map New forecast layout! Learn more

10-Day Weather Forecast

Advertisements
Track Severe Weather on mobile